createdAt,value
2022-12-27T03:17:34.460Z,13.23
2022-12-27T03:20:28.379Z,13.70
2022-12-27T03:23:15.660Z,13.95
2022-12-27T03:25:44.491Z,11.70
2022-12-27T03:28:44.946Z,17.45
2022-12-27T03:31:38.723Z,13.63
2022-12-27T03:34:28.150Z,12.82
2022-12-27T03:37:15.791Z,12.48
2022-12-27T03:39:51.127Z,12.23
2022-12-27T03:42:43.421Z,12.52
2022-12-27T03:45:11.635Z,11.88
2022-12-27T03:47:44.780Z,13.00
2022-12-27T03:50:21.733Z,11.75
2022-12-27T03:53:08.087Z,11.50
2022-12-27T03:55:37.858Z,11.45
2022-12-27T03:58:05.592Z,10.70
2022-12-27T04:00:33.329Z,12.07
2022-12-27T04:03:01.242Z,11.45
2022-12-27T04:05:29.146Z,12.02
2022-12-27T04:08:15.288Z,12.00
2022-12-27T04:11:02.343Z,10.90
2022-12-27T04:13:48.795Z,11.25
2022-12-27T04:16:36.457Z,11.75
2022-12-27T04:19:22.650Z,9.82
2022-12-27T04:22:08.744Z,11.13
2022-12-27T04:24:54.725Z,12.85
2022-12-27T04:27:41.158Z,12.05
2022-12-27T04:30:28.077Z,12.20
2022-12-27T04:33:14.090Z,12.10
2022-12-27T04:35:41.917Z,11.30
2022-12-27T04:38:09.598Z,10.75
2022-12-27T04:40:55.729Z,12.68
2022-12-27T04:43:42.977Z,12.98
2022-12-27T04:46:40.357Z,14.18
2022-12-27T04:49:45.771Z,11.88
2022-12-27T04:52:37.521Z,16.77
2022-12-27T04:55:14.499Z,10.48
2022-12-27T04:57:42.332Z,12.27
2022-12-27T05:00:28.979Z,11.27
2022-12-27T05:02:58.294Z,11.63
2022-12-27T05:05:26.444Z,11.68
2022-12-27T05:08:12.441Z,10.30
2022-12-27T05:10:58.508Z,11.15
2022-12-27T05:13:44.863Z,24.70
2022-12-27T05:16:12.542Z,12.00
2022-12-27T05:18:40.229Z,11.88
2022-12-27T05:21:08.403Z,18.63
2022-12-27T05:23:58.824Z,17.98
2022-12-27T05:26:30.470Z,14.85
2022-12-27T05:28:58.963Z,14.82
2022-12-27T05:31:28.155Z,13.80
2022-12-27T05:33:56.701Z,13.77
2022-12-27T05:36:25.343Z,12.70
2022-12-27T05:38:53.048Z,13.38
2022-12-27T05:41:20.829Z,13.13
2022-12-27T05:43:48.609Z,12.48
2022-12-27T05:46:19.911Z,12.82
2022-12-27T05:48:48.195Z,14.43
2022-12-27T05:51:21.271Z,11.00
2022-12-27T05:53:49.269Z,13.27
2022-12-27T05:56:18.884Z,12.70
2022-12-27T05:58:47.006Z,13.13
2022-12-27T06:01:17.037Z,13.13
2022-12-27T06:03:45.321Z,12.07
2022-12-27T06:06:13.818Z,14.32
2022-12-27T06:08:41.667Z,15.48
2022-12-27T06:11:19.561Z,13.23
2022-12-27T06:13:53.877Z,11.80
2022-12-27T06:16:22.434Z,13.02
2022-12-27T06:18:50.493Z,15.82
2022-12-27T06:21:20.450Z,13.07
2022-12-27T06:23:48.904Z,12.65
2022-12-27T06:26:19.875Z,14.57
2022-12-27T06:28:49.772Z,14.50
2022-12-27T06:31:19.150Z,14.43
2022-12-27T06:33:47.657Z,13.57
2022-12-27T06:36:18.110Z,14.35
2022-12-27T06:38:46.361Z,12.68
2022-12-27T06:41:17.573Z,13.23
2022-12-27T06:43:46.335Z,13.60
2022-12-27T06:46:18.943Z,12.65
2022-12-27T06:48:47.718Z,14.02
2022-12-27T06:51:17.750Z,13.32
2022-12-27T06:53:47.696Z,13.95
2022-12-27T06:56:17.919Z,14.45
2022-12-27T06:58:46.984Z,13.60
2022-12-27T07:01:17.464Z,15.23
2022-12-27T07:03:58.052Z,14.85
2022-12-27T07:06:27.848Z,13.55
2022-12-27T07:08:56.590Z,14.30
2022-12-27T07:11:26.878Z,13.50
2022-12-27T07:13:55.963Z,13.32
2022-12-27T07:16:25.845Z,13.98
2022-12-27T07:18:55.545Z,14.52
2022-12-27T07:21:25.155Z,13.57
2022-12-27T07:23:53.365Z,15.18
2022-12-27T07:26:23.943Z,14.02
2022-12-27T07:28:54.171Z,13.90
2022-12-27T07:31:24.327Z,13.57
2022-12-27T07:33:52.829Z,14.40
2022-12-27T07:36:23.060Z,14.10
2022-12-27T07:38:51.352Z,13.88
2022-12-27T07:41:19.309Z,13.95
2022-12-27T07:43:47.196Z,12.07
2022-12-27T07:46:20.943Z,12.98
2022-12-27T07:48:48.794Z,14.65
2022-12-27T07:51:17.749Z,13.13
2022-12-27T07:53:45.538Z,12.77
2022-12-27T07:56:20.178Z,12.35
2022-12-27T07:58:51.930Z,12.30
2022-12-27T08:01:21.596Z,12.10
2022-12-27T08:03:49.541Z,13.40
2022-12-27T08:06:24.409Z,12.85
2022-12-27T08:08:53.206Z,12.32
2022-12-27T08:11:24.434Z,12.45
2022-12-27T08:13:53.831Z,13.57
2022-12-27T08:16:23.776Z,12.65
2022-12-27T08:18:53.270Z,12.30
2022-12-27T08:21:21.089Z,11.68
2022-12-27T08:23:48.778Z,12.13
2022-12-27T08:26:16.515Z,12.52
2022-12-27T08:28:44.297Z,11.20
2022-12-27T08:31:13.614Z,11.40
2022-12-27T08:33:42.232Z,11.73
2022-12-27T08:38:59.885Z,11.35
2022-12-27T08:41:27.500Z,11.07
2022-12-27T08:43:55.277Z,12.38
2022-12-27T08:46:23.006Z,11.55
2022-12-27T08:48:51.819Z,11.43
2022-12-27T08:51:31.373Z,10.73
2022-12-27T08:54:00.744Z,11.57
2022-12-27T08:56:28.440Z,11.57
2022-12-27T08:58:56.233Z,11.20
2022-12-27T09:01:25.671Z,10.90
2022-12-27T09:03:53.541Z,11.32
2022-12-27T09:06:23.588Z,10.63
2022-12-27T09:08:52.100Z,11.07
2022-12-27T09:11:27.569Z,10.60
2022-12-27T09:13:58.113Z,11.50
2022-12-27T09:16:27.732Z,10.77
2022-12-27T09:18:57.215Z,11.23
2022-12-27T09:21:27.809Z,10.32
2022-12-27T09:23:56.036Z,10.70
2022-12-27T09:26:26.594Z,11.20
2022-12-27T09:28:55.038Z,11.10
2022-12-27T09:31:24.053Z,11.18
2022-12-27T09:33:52.514Z,12.00
2022-12-27T09:36:26.368Z,11.88
2022-12-27T09:38:55.209Z,11.60
2022-12-27T09:44:53.228Z,11.10
2022-12-27T09:47:24.141Z,11.73
2022-12-27T09:49:56.017Z,12.27
2022-12-27T09:52:59.116Z,11.27
2022-12-27T09:55:39.074Z,12.75
2022-12-27T09:58:38.312Z,12.18
2022-12-27T10:01:35.309Z,11.55
2022-12-27T10:04:04.017Z,12.30
2022-12-27T10:07:02.853Z,11.50
2022-12-27T10:09:52.392Z,11.10
2022-12-27T10:12:31.590Z,12.63
2022-12-27T10:15:19.122Z,12.55
2022-12-27T10:18:14.691Z,13.18
2022-12-27T10:20:48.461Z,11.60
2022-12-27T10:23:19.549Z,11.05
2022-12-27T10:25:47.908Z,11.02
2022-12-27T10:28:27.977Z,11.70
2022-12-27T10:30:56.123Z,11.00
2022-12-27T10:33:32.921Z,11.00
2022-12-27T10:36:12.191Z,11.25
2022-12-27T10:38:39.956Z,12.73
2022-12-27T10:41:35.565Z,11.13
2022-12-27T10:44:08.701Z,11.13
2022-12-27T10:46:36.912Z,11.55
2022-12-27T10:49:23.229Z,11.30
2022-12-27T10:51:52.845Z,10.65
2022-12-27T10:54:29.271Z,11.55
2022-12-27T10:57:35.479Z,9.65
2022-12-27T11:00:17.829Z,10.40
2022-12-27T11:05:33.386Z,10.25
2022-12-27T11:08:24.202Z,11.27
2022-12-27T11:11:12.493Z,10.30
2022-12-27T11:13:40.601Z,9.70
2022-12-27T11:16:16.230Z,10.02
2022-12-27T11:18:49.791Z,10.45
2022-12-27T11:21:24.102Z,10.02
2022-12-27T11:24:00.179Z,9.80
2022-12-27T11:26:36.475Z,9.77
2022-12-27T11:29:04.630Z,10.52
2022-12-27T11:31:37.544Z,9.20
2022-12-27T11:34:17.794Z,9.40
2022-12-27T11:36:51.078Z,9.20
2022-12-27T11:39:44.962Z,9.65
2022-12-27T11:42:21.563Z,9.45
2022-12-27T11:45:00.166Z,9.57
2022-12-27T11:47:36.352Z,9.63
2022-12-27T11:50:27.251Z,9.13
2022-12-27T11:53:07.344Z,8.98
2022-12-27T11:56:06.574Z,10.23
2022-12-27T11:59:16.498Z,9.10
2022-12-27T12:02:08.675Z,9.00
2022-12-27T12:04:42.651Z,8.20
2022-12-27T12:07:37.356Z,7.78
2022-12-27T12:10:23.784Z,8.13
2022-12-27T12:13:18.656Z,8.75
2022-12-27T12:16:24.153Z,9.30
2022-12-27T12:19:27.538Z,9.00
2022-12-27T12:22:14.360Z,8.65
2022-12-27T12:25:00.829Z,8.25
2022-12-27T12:27:59.615Z,8.43
2022-12-27T12:30:40.008Z,7.68
2022-12-27T12:33:35.657Z,8.02
2022-12-27T12:36:16.906Z,8.18
2022-12-27T12:38:50.623Z,8.02
2022-12-27T12:42:01.772Z,8.27
2022-12-27T12:45:06.648Z,8.15
2022-12-27T12:48:11.778Z,9.00
2022-12-27T12:50:48.607Z,7.85
2022-12-27T12:53:27.212Z,9.00
2022-12-27T12:56:13.548Z,7.47
2022-12-27T12:58:57.781Z,8.27
2022-12-27T13:02:09.131Z,8.85
2022-12-27T13:04:43.224Z,8.35
2022-12-27T13:07:23.181Z,8.02
2022-12-27T13:10:02.115Z,7.75
2022-12-27T13:12:49.057Z,8.23
2022-12-27T13:15:33.770Z,8.27
2022-12-27T13:18:04.668Z,8.38
2022-12-27T13:20:53.849Z,8.57
2022-12-27T13:23:32.552Z,7.95
2022-12-27T13:26:25.148Z,8.63
2022-12-27T13:31:31.199Z,8.07
2022-12-27T13:34:19.716Z,8.27
2022-12-27T13:36:59.586Z,7.60
2022-12-27T13:39:36.316Z,7.22
2022-12-27T13:42:22.895Z,9.10
2022-12-27T13:45:04.479Z,8.65
2022-12-27T13:47:53.199Z,8.70
2022-12-27T13:50:37.708Z,8.70
2022-12-27T13:53:34.324Z,7.68
2022-12-27T13:56:53.441Z,7.18
2022-12-27T13:59:38.395Z,7.93
2022-12-27T14:02:15.355Z,8.38
2022-12-27T14:05:01.411Z,6.60
2022-12-27T14:07:49.979Z,7.88
2022-12-27T14:10:58.595Z,6.97
2022-12-27T14:13:36.293Z,8.47
2022-12-27T14:16:16.406Z,7.38
2022-12-27T14:18:50.300Z,8.05
2022-12-27T14:21:50.262Z,7.78
2022-12-27T14:24:43.911Z,7.70
2022-12-27T14:27:11.629Z,7.53
2022-12-27T14:30:02.608Z,7.40
2022-12-27T14:33:18.418Z,8.02
2022-12-27T14:36:00.817Z,7.10
2022-12-27T14:41:35.103Z,7.32
2022-12-27T14:44:36.049Z,7.85
2022-12-27T14:47:44.819Z,7.20
2022-12-27T14:50:30.987Z,7.85
2022-12-27T14:53:17.339Z,6.60
2022-12-27T14:55:47.295Z,6.97
2022-12-27T14:58:55.623Z,7.07
2022-12-27T15:01:45.524Z,7.28
2022-12-27T15:04:31.897Z,7.70
2022-12-27T15:07:02.561Z,6.75
2022-12-27T15:09:33.117Z,7.10
2022-12-27T15:12:04.364Z,7.47
2022-12-27T15:14:36.067Z,7.83
2022-12-27T15:17:40.911Z,7.47
2022-12-27T15:20:14.459Z,6.85
2022-12-27T15:23:13.450Z,7.00
2022-12-27T15:26:02.481Z,6.13
2022-12-27T15:28:46.107Z,6.85
2022-12-27T15:31:40.249Z,6.53
2022-12-27T15:34:38.433Z,7.65
2022-12-27T15:37:06.683Z,7.40
2022-12-27T15:39:34.323Z,7.00
2022-12-27T15:42:23.756Z,6.40
2022-12-27T15:45:09.864Z,8.50
2022-12-27T15:47:58.893Z,6.85
2022-12-27T15:50:37.937Z,5.80
2022-12-27T15:53:32.044Z,5.30
2022-12-27T15:56:36.629Z,7.03
2022-12-27T15:59:41.900Z,8.30
2022-12-27T16:02:59.261Z,6.15
2022-12-27T16:05:43.527Z,6.70
2022-12-27T16:08:11.304Z,6.53
2022-12-27T16:10:42.081Z,7.45
2022-12-27T16:13:09.909Z,6.65
2022-12-27T16:15:44.977Z,5.78
2022-12-27T16:18:21.973Z,6.38
2022-12-27T16:20:58.728Z,6.03
2022-12-27T16:23:48.942Z,6.07
2022-12-27T16:26:16.687Z,8.52
2022-12-27T16:28:52.240Z,6.82
2022-12-27T16:31:29.043Z,5.72
2022-12-27T16:33:58.596Z,5.20
2022-12-27T16:36:30.469Z,5.63
2022-12-27T16:39:11.867Z,6.45
2022-12-27T16:41:42.582Z,7.22
2022-12-27T16:44:22.499Z,5.72
2022-12-27T16:46:57.100Z,5.43
2022-12-27T16:49:58.685Z,6.18
2022-12-27T16:52:48.207Z,5.75
2022-12-27T16:55:43.519Z,5.40
2022-12-27T16:58:29.636Z,5.60
2022-12-27T17:00:59.651Z,4.80
2022-12-27T17:03:36.798Z,5.93
2022-12-27T17:06:35.178Z,10.75
2022-12-27T17:09:10.109Z,7.53
2022-12-27T17:11:49.992Z,6.90
2022-12-27T17:14:19.527Z,7.05
2022-12-27T17:16:50.613Z,7.05
2022-12-27T17:19:21.755Z,6.73
2022-12-27T17:21:56.038Z,6.83
2022-12-27T17:24:24.093Z,7.93
2022-12-27T17:27:13.888Z,7.97
2022-12-27T17:30:00.294Z,6.53
2022-12-27T17:32:36.357Z,6.78
2022-12-27T17:35:25.852Z,7.70
2022-12-27T17:38:24.183Z,7.78
2022-12-27T17:41:04.179Z,7.80
2022-12-27T17:44:15.221Z,6.65
2022-12-27T17:47:02.941Z,6.53
2022-12-27T17:49:32.252Z,8.60
2022-12-27T17:52:26.879Z,7.60
2022-12-27T17:55:24.171Z,6.25
2022-12-27T17:57:55.453Z,7.60
2022-12-27T18:00:25.247Z,7.10
2022-12-27T18:02:54.440Z,6.97
2022-12-27T18:05:28.135Z,6.93
2022-12-27T18:08:04.934Z,6.75
2022-12-27T18:10:34.604Z,7.50
2022-12-27T18:13:05.413Z,6.13
2022-12-27T18:15:36.991Z,6.13
2022-12-27T18:18:07.041Z,5.32
2022-12-27T18:20:37.708Z,7.05
2022-12-27T18:23:06.286Z,7.40
2022-12-27T18:25:37.764Z,6.90
2022-12-27T18:28:13.128Z,9.38
2022-12-27T18:30:44.183Z,6.57
2022-12-27T18:33:14.131Z,8.20
2022-12-27T18:35:50.718Z,6.85
2022-12-27T18:38:28.360Z,6.63
2022-12-27T18:41:03.089Z,6.97
2022-12-27T18:43:31.493Z,8.48
2022-12-27T18:45:59.547Z,6.90
2022-12-27T18:48:32.901Z,9.60
2022-12-27T18:51:01.328Z,7.13
2022-12-27T18:53:35.663Z,5.50
2022-12-27T18:56:07.482Z,6.43
2022-12-27T18:58:35.231Z,5.22
2022-12-27T19:01:14.729Z,5.93
2022-12-27T19:03:42.554Z,6.10
2022-12-27T19:06:12.031Z,7.00
2022-12-27T19:08:44.707Z,7.85
2022-12-27T19:11:25.760Z,5.97
2022-12-27T19:13:56.816Z,8.20
2022-12-27T19:16:29.982Z,9.82
2022-12-27T19:19:02.441Z,6.35
2022-12-27T19:21:36.373Z,5.38
2022-12-27T19:24:29.555Z,5.70
2022-12-27T19:27:02.824Z,6.22
2022-12-27T19:29:37.857Z,4.95
2022-12-27T19:32:10.473Z,6.38
2022-12-27T19:34:50.747Z,8.25
2022-12-27T19:37:19.309Z,8.23
2022-12-27T19:39:48.115Z,6.93
2022-12-27T19:42:18.948Z,5.57
2022-12-27T19:44:47.449Z,6.70
2022-12-27T19:47:15.674Z,9.70
2022-12-27T19:49:44.792Z,6.82
2022-12-27T19:52:18.723Z,6.15
2022-12-27T19:54:47.543Z,6.25
2022-12-27T19:57:15.515Z,5.35
2022-12-27T19:59:43.355Z,8.02
2022-12-27T20:02:11.605Z,6.90
2022-12-27T20:04:39.691Z,5.75
2022-12-27T20:07:07.445Z,7.32
2022-12-27T20:09:35.199Z,7.88
2022-12-27T20:12:03.231Z,6.47
2022-12-27T20:14:30.979Z,6.88
2022-12-27T20:16:58.725Z,6.93
2022-12-27T20:19:26.582Z,6.80
2022-12-27T20:21:54.272Z,7.32
2022-12-27T20:24:22.491Z,7.10
2022-12-27T20:26:50.360Z,7.38
2022-12-27T20:29:18.147Z,9.82
2022-12-27T20:31:48.721Z,8.48
2022-12-27T20:34:16.632Z,8.10
2022-12-27T20:36:44.904Z,8.15
2022-12-27T20:39:12.999Z,7.70
2022-12-27T20:41:40.796Z,9.30
2022-12-27T20:44:08.588Z,8.68
2022-12-27T20:46:36.187Z,8.27
2022-12-27T20:49:03.991Z,8.25
2022-12-27T20:51:34.569Z,9.18
2022-12-27T20:54:03.997Z,7.90
2022-12-27T20:56:31.755Z,7.82
2022-12-27T20:58:59.675Z,7.07
2022-12-27T21:01:27.823Z,8.85
2022-12-27T21:03:56.874Z,8.50
2022-12-27T21:06:27.218Z,7.50
2022-12-27T21:08:57.604Z,8.10
2022-12-27T21:11:34.077Z,8.37
2022-12-27T21:14:04.246Z,8.52
2022-12-27T21:16:33.633Z,7.63
2022-12-27T21:19:05.212Z,8.13
2022-12-27T21:21:35.308Z,7.68
2022-12-27T21:24:03.694Z,8.77
2022-12-27T21:26:33.992Z,9.35
2022-12-27T21:29:03.884Z,8.02
2022-12-27T21:31:32.287Z,8.50
2022-12-27T21:34:00.344Z,9.70
2022-12-27T21:36:30.784Z,9.10
2022-12-27T21:38:59.150Z,9.90
2022-12-27T21:41:32.085Z,9.60
2022-12-27T21:44:00.202Z,9.23
2022-12-27T21:46:30.568Z,9.70
2022-12-27T21:49:06.254Z,9.45
2022-12-27T21:51:35.134Z,10.15
2022-12-27T21:54:03.279Z,10.25
2022-12-27T21:56:31.294Z,9.73
2022-12-27T21:58:59.972Z,11.02
